createdAt,value
2019-05-01T00:02:32.453Z,24.97
2019-05-01T00:05:04.574Z,26.17
2019-05-01T00:07:36.565Z,23.37
2019-05-01T00:10:07.793Z,24.73
2019-05-01T00:12:38.297Z,23.40
2019-05-01T00:15:09.856Z,24.90
2019-05-01T00:17:40.376Z,26.40
2019-05-01T00:20:11.000Z,24.90
2019-05-01T00:22:41.519Z,25.37
2019-05-01T00:25:11.877Z,26.07
2019-05-01T00:27:42.434Z,27.13
2019-05-01T00:30:15.254Z,26.83
2019-05-01T00:32:45.771Z,27.30
2019-05-01T00:35:16.193Z,25.70
2019-05-01T00:37:46.672Z,27.67
2019-05-01T00:40:17.132Z,26.77
2019-05-01T00:42:47.631Z,27.83
2019-05-01T00:45:18.055Z,25.77
2019-05-01T00:47:48.524Z,27.70
2019-05-01T00:50:18.984Z,27.60
2019-05-01T00:52:49.459Z,25.73
2019-05-01T00:55:30.877Z,28.27
2019-05-01T00:58:17.792Z,27.27
2019-05-01T01:00:50.619Z,26.63
2019-05-01T01:03:21.246Z,27.33
2019-05-01T01:05:51.700Z,28.70
2019-05-01T01:08:22.284Z,28.70
2019-05-01T01:10:52.725Z,25.77
2019-05-01T01:13:23.226Z,28.30
2019-05-01T01:15:53.572Z,28.67
2019-05-01T01:18:24.059Z,28.53
2019-05-01T01:20:54.579Z,29.50
2019-05-01T01:23:25.671Z,28.30
2019-05-01T01:25:56.075Z,28.73
2019-05-01T01:28:26.681Z,28.77
2019-05-01T01:30:57.090Z,28.70
2019-05-01T01:33:27.565Z,31.30
2019-05-01T01:35:57.996Z,28.83
2019-05-01T01:38:28.554Z,29.10
2019-05-01T01:41:00.511Z,28.30
2019-05-01T01:43:35.732Z,30.60
2019-05-01T01:46:07.922Z,29.33
2019-05-01T01:48:38.822Z,29.63
2019-05-01T01:51:09.369Z,29.10
2019-05-01T01:53:40.065Z,30.00
2019-05-01T01:56:10.497Z,29.00
2019-05-01T01:58:40.961Z,29.87
2019-05-01T02:01:13.839Z,30.73
2019-05-01T02:03:48.716Z,29.43
2019-05-01T02:06:19.342Z,30.17
2019-05-01T02:08:56.757Z,28.83
2019-05-01T02:11:24.377Z,32.40
2019-05-01T02:13:58.425Z,29.43
2019-05-01T02:16:28.866Z,31.33
2019-05-01T02:18:59.337Z,33.43
2019-05-01T02:21:29.763Z,30.90
2019-05-01T02:24:00.247Z,30.77
2019-05-01T02:26:32.284Z,30.57
2019-05-01T02:29:20.547Z,30.87
2019-05-01T02:31:53.878Z,30.77
2019-05-01T02:34:25.967Z,30.30
2019-05-01T02:36:59.300Z,32.27
2019-05-01T02:39:32.629Z,31.00
2019-05-01T02:42:04.199Z,30.93
2019-05-01T02:44:46.393Z,30.37
2019-05-01T02:47:19.744Z,32.00
2019-05-01T02:50:04.981Z,34.10
2019-05-01T02:52:37.414Z,32.03
2019-05-01T02:55:11.530Z,30.40
2019-05-01T02:57:42.545Z,31.03
2019-05-01T03:00:13.035Z,33.33
2019-05-01T03:02:44.322Z,31.07
2019-05-01T03:05:14.964Z,32.80
2019-05-01T03:07:45.994Z,32.20
2019-05-01T03:10:17.617Z,32.03
2019-05-01T03:12:50.001Z,33.33
2019-05-01T03:15:22.766Z,32.27
2019-05-01T03:18:11.198Z,32.13
2019-05-01T03:20:59.413Z,31.10
2019-05-01T03:23:31.391Z,30.90
2019-05-01T03:26:02.263Z,32.23
2019-05-01T03:28:32.791Z,30.97
2019-05-01T03:31:03.280Z,33.03
2019-05-01T03:33:34.113Z,32.23
2019-05-01T03:36:05.088Z,32.27
2019-05-01T03:38:35.600Z,31.60
2019-05-01T03:41:06.363Z,31.13
2019-05-01T03:43:37.114Z,31.70
2019-05-01T03:46:07.888Z,31.80
2019-05-01T03:48:38.730Z,34.13
2019-05-01T03:51:09.529Z,31.97
2019-05-01T03:53:40.353Z,31.20
2019-05-01T03:56:10.922Z,31.00
2019-05-01T03:58:41.634Z,32.07
2019-05-01T04:01:29.661Z,31.73
2019-05-01T04:04:05.547Z,33.03
2019-05-01T04:06:37.338Z,32.37
2019-05-01T04:09:08.155Z,32.97
2019-05-01T04:11:38.798Z,31.40
2019-05-01T04:14:09.762Z,32.83
2019-05-01T04:16:42.093Z,31.87
2019-05-01T04:19:12.621Z,31.53
2019-05-01T04:21:47.337Z,31.67
2019-05-01T04:24:18.257Z,32.87
2019-05-01T04:26:48.951Z,31.93
2019-05-01T04:29:21.082Z,32.60
2019-05-01T04:31:56.472Z,33.10
2019-05-01T04:34:43.494Z,33.43
2019-05-01T04:37:15.505Z,33.10
2019-05-01T04:39:46.358Z,30.07
2019-05-01T04:42:16.804Z,31.23
2019-05-01T04:44:47.311Z,30.03
2019-05-01T04:47:18.162Z,29.90
2019-05-01T04:49:48.600Z,31.03
2019-05-01T04:52:19.082Z,31.03
2019-05-01T04:54:49.597Z,29.43
2019-05-01T04:57:20.287Z,30.90
2019-05-01T04:59:50.824Z,30.40
2019-05-01T05:02:23.056Z,33.30
2019-05-01T05:04:54.777Z,31.53
2019-05-01T05:07:25.335Z,31.80
2019-05-01T05:09:55.760Z,31.03
2019-05-01T05:12:46.479Z,31.03
2019-05-01T05:15:30.924Z,28.57
2019-05-01T05:18:01.456Z,32.03
2019-05-01T05:20:31.948Z,32.30
2019-05-01T05:23:02.738Z,34.60
2019-05-01T05:25:33.149Z,33.57
2019-05-01T05:28:04.220Z,33.33
2019-05-01T05:30:37.078Z,33.07
2019-05-01T05:33:18.094Z,32.40
2019-05-01T05:35:43.722Z,32.53
2019-05-01T05:38:17.059Z,31.93
2019-05-01T05:40:47.612Z,33.27
2019-05-01T05:43:18.103Z,32.30
2019-05-01T05:45:48.669Z,34.47
2019-05-01T05:48:19.255Z,33.00
2019-05-01T05:51:07.747Z,32.80
2019-05-01T05:53:42.117Z,32.97
2019-05-01T05:56:16.716Z,32.77
2019-05-01T05:58:53.889Z,33.37
2019-05-01T06:01:28.768Z,32.33
2019-05-01T06:04:18.355Z,31.97
2019-05-01T06:06:59.917Z,32.47
2019-05-01T06:09:35.291Z,30.90
2019-05-01T06:12:09.041Z,31.80
2019-05-01T06:14:43.242Z,30.27
2019-05-01T06:17:15.331Z,31.10
2019-05-01T06:19:49.751Z,30.23
2019-05-01T06:22:24.394Z,28.77
2019-05-01T06:25:03.364Z,30.43
2019-05-01T06:27:34.801Z,30.27
2019-05-01T06:30:11.054Z,31.07
2019-05-01T06:32:40.462Z,30.00
2019-05-01T06:35:10.970Z,29.27
2019-05-01T06:37:47.033Z,30.10
2019-05-01T06:40:22.522Z,29.53
2019-05-01T06:42:51.264Z,29.57
2019-05-01T06:45:23.301Z,28.27
2019-05-01T06:47:58.266Z,30.37
2019-05-01T06:50:32.046Z,30.00
2019-05-01T06:53:04.742Z,31.43
2019-05-01T06:55:35.439Z,33.03
2019-05-01T06:58:06.270Z,34.93
2019-05-01T07:00:42.967Z,34.10
2019-05-01T07:03:11.698Z,32.27
2019-05-01T07:05:44.627Z,34.50
2019-05-01T07:08:24.515Z,33.93
2019-05-01T07:10:47.321Z,94.67
2019-05-01T07:13:17.946Z,30.97
2019-05-01T07:15:48.537Z,29.07
2019-05-01T07:18:24.080Z,32.57
2019-05-01T07:20:53.291Z,34.63
2019-05-01T07:23:25.487Z,34.07
2019-05-01T07:25:57.495Z,31.77
2019-05-01T07:28:34.205Z,35.10
2019-05-01T07:31:04.994Z,37.67
2019-05-01T07:33:34.656Z,34.35
2019-05-01T07:36:07.565Z,37.90
2019-05-01T07:38:40.366Z,33.60
2019-05-01T07:41:12.507Z,33.60
2019-05-01T07:43:54.886Z,32.23
2019-05-01T07:46:24.723Z,33.95
2019-05-01T07:48:56.048Z,35.45
2019-05-01T07:51:26.803Z,33.20
2019-05-01T07:53:59.042Z,34.38
2019-05-01T07:56:30.487Z,36.10
2019-05-01T07:59:01.109Z,35.78
2019-05-01T08:01:42.097Z,33.15
2019-05-01T08:04:13.751Z,30.23
2019-05-01T08:06:44.680Z,31.70
2019-05-01T08:09:16.473Z,30.97
2019-05-01T08:11:47.025Z,28.10
2019-05-01T08:14:18.672Z,30.00
2019-05-01T08:16:49.329Z,31.75
2019-05-01T08:19:27.023Z,32.25
2019-05-01T08:22:03.019Z,29.65
2019-05-01T08:24:33.563Z,25.68
2019-05-01T08:27:04.033Z,24.60
2019-05-01T08:29:52.306Z,26.02
2019-05-01T08:32:27.329Z,28.10
2019-05-01T08:35:00.538Z,33.73
2019-05-01T08:37:31.495Z,37.50
2019-05-01T08:40:01.913Z,33.18
2019-05-01T08:42:32.364Z,26.00
2019-05-01T08:45:10.039Z,25.32
2019-05-01T08:47:42.079Z,23.47
2019-05-01T08:50:19.947Z,24.92
2019-05-01T08:52:49.116Z,22.32
2019-05-01T08:55:19.526Z,22.67
2019-05-01T08:57:50.018Z,20.88
2019-05-01T09:00:20.440Z,21.37
2019-05-01T09:02:50.931Z,20.57
2019-05-01T09:05:29.119Z,20.55
2019-05-01T09:07:56.019Z,20.82
2019-05-01T09:10:26.526Z,19.85
2019-05-01T09:12:56.942Z,19.32
2019-05-01T09:15:27.345Z,19.42
2019-05-01T09:17:57.904Z,19.10
2019-05-01T09:20:28.832Z,18.48
2019-05-01T09:22:59.325Z,18.75
2019-05-01T09:25:40.407Z,18.00
2019-05-01T09:28:12.537Z,18.48
2019-05-01T09:30:47.675Z,17.65
2019-05-01T09:33:18.124Z,18.45
2019-05-01T09:35:48.615Z,18.55
2019-05-01T09:38:19.083Z,19.05
2019-05-01T09:40:49.542Z,19.40
2019-05-01T09:43:19.930Z,20.32
2019-05-01T09:45:50.284Z,18.55
2019-05-01T09:48:20.729Z,20.00
2019-05-01T09:51:07.771Z,19.70
2019-05-01T09:53:42.495Z,19.20
2019-05-01T09:56:14.465Z,18.65
2019-05-01T09:58:45.471Z,18.48
2019-05-01T10:01:15.986Z,18.35
2019-05-01T10:03:49.411Z,18.05
2019-05-01T10:06:18.889Z,17.12
2019-05-01T10:08:49.363Z,16.35
2019-05-01T10:11:20.676Z,15.83
2019-05-01T10:13:53.797Z,15.95
2019-05-01T10:16:24.105Z,14.63
2019-05-01T10:18:55.346Z,14.93
2019-05-01T10:21:27.292Z,14.28
2019-05-01T10:23:57.941Z,13.60
2019-05-01T10:26:29.922Z,12.25
2019-05-01T10:29:14.105Z,11.83
2019-05-01T10:31:55.070Z,10.82
2019-05-01T10:34:30.070Z,9.40
2019-05-01T10:37:00.476Z,9.05
2019-05-01T10:39:30.961Z,10.00
2019-05-01T10:42:01.371Z,9.13
2019-05-01T10:44:31.737Z,10.88
2019-05-01T10:47:02.289Z,9.63
2019-05-01T10:49:32.803Z,10.32
2019-05-01T10:52:13.671Z,8.23
2019-05-01T10:54:35.482Z,7.80
2019-05-01T10:57:05.904Z,7.83
2019-05-01T10:59:36.476Z,8.73
2019-05-01T11:02:08.507Z,8.63
2019-05-01T11:04:39.073Z,8.55
2019-05-01T11:07:09.568Z,8.13
2019-05-01T11:09:40.402Z,8.80
2019-05-01T11:12:11.635Z,8.95
2019-05-01T11:14:42.137Z,7.72
2019-05-01T11:17:12.612Z,9.18
2019-05-01T11:19:43.184Z,7.90
2019-05-01T11:22:13.607Z,7.70
2019-05-01T11:24:44.085Z,7.70
2019-05-01T11:27:14.631Z,8.23
2019-05-01T11:29:45.143Z,7.25
2019-05-01T11:32:25.973Z,6.33
2019-05-01T11:35:06.888Z,6.85
2019-05-01T11:37:41.874Z,8.25
2019-05-01T11:40:32.283Z,7.95
2019-05-01T11:43:02.889Z,7.60
2019-05-01T11:45:33.354Z,7.65
2019-05-01T11:48:03.963Z,6.33
2019-05-01T11:50:34.526Z,5.62
2019-05-01T11:53:05.073Z,5.78
2019-05-01T11:55:35.606Z,5.03
2019-05-01T11:58:06.244Z,5.30
2019-05-01T12:00:36.740Z,6.15
2019-05-01T12:03:07.263Z,5.78
2019-05-01T12:05:37.809Z,4.78
2019-05-01T12:08:08.173Z,4.00
2019-05-01T12:10:38.487Z,4.62
2019-05-01T12:13:09.797Z,3.80
2019-05-01T12:15:41.783Z,4.45
2019-05-01T12:18:12.233Z,4.87
2019-05-01T12:20:42.827Z,4.85
2019-05-01T12:23:15.301Z,5.67
2019-05-01T12:25:45.791Z,4.55
2019-05-01T12:28:16.234Z,5.10
2019-05-01T12:30:46.735Z,4.85
2019-05-01T12:33:17.217Z,4.83
2019-05-01T12:35:49.303Z,4.67
2019-05-01T12:38:19.806Z,3.95
2019-05-01T12:41:07.784Z,3.33
2019-05-01T12:43:38.151Z,3.77
2019-05-01T12:46:10.092Z,3.70
2019-05-01T12:48:40.350Z,4.92
2019-05-01T12:51:11.012Z,5.12
2019-05-01T12:53:54.678Z,5.58
2019-05-01T12:56:26.769Z,5.03
2019-05-01T12:58:57.219Z,5.50
2019-05-01T13:01:27.724Z,4.60
2019-05-01T13:03:58.050Z,4.25
2019-05-01T13:06:28.446Z,4.08
2019-05-01T13:08:58.960Z,4.17
2019-05-01T13:11:29.413Z,3.72
2019-05-01T13:14:00.653Z,4.15
2019-05-01T13:16:31.053Z,3.40
2019-05-01T13:19:01.294Z,3.58
2019-05-01T13:21:31.757Z,4.28
2019-05-01T13:24:02.194Z,4.42
2019-05-01T13:26:34.153Z,3.67
2019-05-01T13:29:06.729Z,3.60
2019-05-01T13:31:38.747Z,4.17
2019-05-01T13:34:10.263Z,2.83
2019-05-01T13:36:40.695Z,3.72
2019-05-01T13:39:12.438Z,3.40
2019-05-01T13:41:42.864Z,3.15
2019-05-01T13:44:13.190Z,3.62
2019-05-01T13:46:43.655Z,3.30
2019-05-01T13:49:14.048Z,3.80
2019-05-01T13:51:44.597Z,3.67
2019-05-01T13:54:15.102Z,3.02
2019-05-01T13:56:45.464Z,3.95
2019-05-01T13:59:16.229Z,4.35
2019-05-01T14:01:46.700Z,3.35
2019-05-01T14:04:17.675Z,2.77
2019-05-01T14:06:48.166Z,3.40
2019-05-01T14:09:20.168Z,3.17
2019-05-01T14:11:50.611Z,3.10
2019-05-01T14:14:21.776Z,2.50
2019-05-01T14:16:52.173Z,2.70
2019-05-01T14:19:22.512Z,3.35
2019-05-01T14:21:54.554Z,3.10
2019-05-01T14:24:26.544Z,3.10
2019-05-01T14:26:56.908Z,4.85
2019-05-01T14:29:27.337Z,17.10
2019-05-01T14:31:57.842Z,8.90
2019-05-01T14:34:28.272Z,9.00
2019-05-01T14:36:58.731Z,10.00
2019-05-01T14:39:29.149Z,5.72
2019-05-01T14:41:59.639Z,5.17
2019-05-01T14:44:36.535Z,7.08
2019-05-01T14:47:02.365Z,7.50
2019-05-01T14:49:32.833Z,3.67
2019-05-01T14:52:03.147Z,2.90
2019-05-01T14:54:33.490Z,3.40
2019-05-01T14:57:03.893Z,3.95
2019-05-01T14:59:34.280Z,3.27
2019-05-01T15:02:04.826Z,3.70
2019-05-01T15:04:35.238Z,3.52
2019-05-01T15:07:05.948Z,4.67
2019-05-01T15:09:36.467Z,3.60
2019-05-01T15:12:08.519Z,3.10
2019-05-01T15:14:44.302Z,2.98
2019-05-01T15:17:16.264Z,4.22
2019-05-01T15:19:51.182Z,4.90
2019-05-01T15:22:21.677Z,5.80
2019-05-01T15:24:52.122Z,4.78
2019-05-01T15:27:22.552Z,3.87
2019-05-01T15:29:53.017Z,3.05
2019-05-01T15:32:23.414Z,2.60
2019-05-01T15:34:53.890Z,2.98
2019-05-01T15:37:24.625Z,3.40
2019-05-01T15:39:56.551Z,3.40
2019-05-01T15:42:31.402Z,4.12
2019-05-01T15:45:01.790Z,3.25
2019-05-01T15:47:32.165Z,3.50
2019-05-01T15:50:02.487Z,3.55
2019-05-01T15:52:32.848Z,3.70
2019-05-01T15:55:03.738Z,2.83
2019-05-01T15:57:34.129Z,2.72
2019-05-01T16:00:07.759Z,3.40
2019-05-01T16:02:38.192Z,3.02
2019-05-01T16:05:08.640Z,3.62
2019-05-01T16:07:39.066Z,3.85
2019-05-01T16:10:12.676Z,8.75
2019-05-01T16:12:50.468Z,7.45
2019-05-01T16:15:23.532Z,6.08
2019-05-01T16:17:54.001Z,5.15
2019-05-01T16:20:24.366Z,4.33
2019-05-01T16:22:54.951Z,5.00
2019-05-01T16:25:25.374Z,4.65
2019-05-01T16:27:55.855Z,5.08
2019-05-01T16:30:27.421Z,4.50
2019-05-01T16:32:57.822Z,3.92
2019-05-01T16:35:28.151Z,3.83
2019-05-01T16:38:00.122Z,4.70
2019-05-01T16:40:37.799Z,4.05
2019-05-01T16:43:10.015Z,21.85
2019-05-01T16:45:40.587Z,6.70
2019-05-01T16:48:11.187Z,158.90
2019-05-01T16:50:41.671Z,44.00
2019-05-01T16:53:12.355Z,8.75
2019-05-01T16:55:43.221Z,9.80
2019-05-01T16:58:15.076Z,39.35
2019-05-01T17:01:00.995Z,32.83
2019-05-01T17:03:36.073Z,13.75
2019-05-01T17:06:19.968Z,7.17
2019-05-01T17:08:56.468Z,6.00
2019-05-01T17:11:28.605Z,5.85
2019-05-01T17:13:59.362Z,5.95
2019-05-01T17:16:32.861Z,7.50
2019-05-01T17:19:04.038Z,8.90
2019-05-01T17:21:35.401Z,7.60
2019-05-01T17:24:06.100Z,5.85
2019-05-01T17:26:36.509Z,5.37
2019-05-01T17:29:07.033Z,3.30
2019-05-01T17:31:37.290Z,3.65
2019-05-01T17:34:09.797Z,3.37
2019-05-01T17:36:40.171Z,4.60
2019-05-01T17:39:10.830Z,3.02
2019-05-01T17:41:41.101Z,3.00
2019-05-01T17:44:11.497Z,3.08
2019-05-01T17:46:46.787Z,3.47
2019-05-01T17:49:13.920Z,2.30
2019-05-01T17:51:47.562Z,2.17
2019-05-01T17:54:17.972Z,2.62
2019-05-01T17:56:53.138Z,2.77
2019-05-01T17:59:24.711Z,2.60
2019-05-01T18:02:14.643Z,2.33
2019-05-01T18:04:46.598Z,2.62
2019-05-01T18:07:16.857Z,2.30
2019-05-01T18:09:47.244Z,2.33
2019-05-01T18:12:17.496Z,1.85
2019-05-01T18:14:48.981Z,2.10
2019-05-01T18:17:26.009Z,2.00
2019-05-01T18:19:56.377Z,2.25
2019-05-01T18:22:37.081Z,1.87
2019-05-01T18:25:28.123Z,1.82
2019-05-01T18:28:08.822Z,1.87
2019-05-01T18:30:45.140Z,3.47
2019-05-01T18:33:21.988Z,3.00
2019-05-01T18:35:55.229Z,3.10
2019-05-01T18:38:31.060Z,4.62
2019-05-01T18:41:17.761Z,6.65
2019-05-01T18:43:48.258Z,6.78
2019-05-01T18:46:24.548Z,10.05
2019-05-01T18:48:54.173Z,5.10
2019-05-01T18:51:25.147Z,3.35
2019-05-01T18:53:58.822Z,4.05
2019-05-01T18:56:29.302Z,5.83
2019-05-01T18:59:06.770Z,3.87
2019-05-01T19:01:37.257Z,5.90
2019-05-01T19:04:07.683Z,3.67
2019-05-01T19:06:41.357Z,3.65
2019-05-01T19:09:15.138Z,2.60
2019-05-01T19:11:46.173Z,3.50
2019-05-01T19:14:17.919Z,3.55
2019-05-01T19:16:48.420Z,2.50
2019-05-01T19:19:18.839Z,1.82
2019-05-01T19:21:49.230Z,1.95
2019-05-01T19:24:19.742Z,1.70
2019-05-01T19:26:50.182Z,1.80
2019-05-01T19:29:31.903Z,1.90
2019-05-01T19:31:58.210Z,1.80
2019-05-01T19:34:30.588Z,2.12
2019-05-01T19:37:00.624Z,1.83
2019-05-01T19:39:42.846Z,2.77
2019-05-01T19:42:03.403Z,2.67
2019-05-01T19:44:33.809Z,3.08
2019-05-01T19:47:04.158Z,2.97
2019-05-01T19:49:34.578Z,3.87
2019-05-01T19:52:05.048Z,5.53
2019-05-01T19:54:39.841Z,6.63
2019-05-01T19:57:11.738Z,5.10
2019-05-01T19:59:42.129Z,4.57
2019-05-01T20:02:17.326Z,4.00
2019-05-01T20:04:50.500Z,3.70
2019-05-01T20:07:21.528Z,3.70
2019-05-01T20:09:57.149Z,3.80
2019-05-01T20:12:23.260Z,3.90
2019-05-01T20:14:53.774Z,3.77
2019-05-01T20:17:24.095Z,3.33
2019-05-01T20:19:55.223Z,5.73
2019-05-01T20:22:25.685Z,3.70
2019-05-01T20:24:56.116Z,4.57
2019-05-01T20:27:27.769Z,5.93
2019-05-01T20:29:59.104Z,3.80
2019-05-01T20:32:31.908Z,4.50
2019-05-01T20:35:02.203Z,3.00
2019-05-01T20:37:32.582Z,5.40
2019-05-01T20:40:11.009Z,4.20
2019-05-01T20:42:41.064Z,3.40
2019-05-01T20:45:17.517Z,4.00
2019-05-01T20:47:48.034Z,3.27
2019-05-01T20:50:17.958Z,2.90
2019-05-01T20:52:48.331Z,3.37
2019-05-01T20:55:18.653Z,2.80
2019-05-01T20:57:49.964Z,3.63
2019-05-01T21:00:25.496Z,3.00
2019-05-01T21:02:55.873Z,2.53
2019-05-01T21:05:29.230Z,2.60
2019-05-01T21:08:05.532Z,3.40
2019-05-01T21:10:50.496Z,2.87
2019-05-01T21:13:23.119Z,2.90
2019-05-01T21:16:01.535Z,2.90
2019-05-01T21:18:28.508Z,3.27
2019-05-01T21:21:03.329Z,3.30
2019-05-01T21:23:33.510Z,2.83
2019-05-01T21:26:03.993Z,3.07
2019-05-01T21:28:34.863Z,2.73
2019-05-01T21:31:05.142Z,2.37
2019-05-01T21:33:35.511Z,2.33
2019-05-01T21:36:08.403Z,2.07
2019-05-01T21:38:42.365Z,2.33
2019-05-01T21:41:12.632Z,2.27
2019-05-01T21:43:42.932Z,2.10
2019-05-01T21:46:14.853Z,2.30
2019-05-01T21:48:47.863Z,2.53
2019-05-01T21:51:19.679Z,2.40
2019-05-01T21:53:50.013Z,1.93
2019-05-01T21:56:20.240Z,2.07
2019-05-01T21:58:50.596Z,2.00
2019-05-01T22:01:20.802Z,2.43
2019-05-01T22:03:52.541Z,2.07
2019-05-01T22:06:23.074Z,1.90
2019-05-01T22:08:55.729Z,2.10
2019-05-01T22:11:26.589Z,1.97
2019-05-01T22:14:08.623Z,2.00
2019-05-01T22:16:36.163Z,1.90
2019-05-01T22:19:17.140Z,2.30
2019-05-01T22:22:13.008Z,2.23
2019-05-01T22:25:03.253Z,2.77
2019-05-01T22:27:38.301Z,2.37
2019-05-01T22:33:19.149Z,2.60
2019-05-01T22:35:51.296Z,2.17
2019-05-01T22:38:21.760Z,1.97
2019-05-01T22:41:05.342Z,2.43
2019-05-01T22:43:26.218Z,2.43
2019-05-01T22:46:01.750Z,2.07
2019-05-01T22:48:28.623Z,2.30
2019-05-01T22:51:00.510Z,2.47
2019-05-01T22:53:30.887Z,2.20
2019-05-01T22:56:02.341Z,2.47
2019-05-01T22:58:33.313Z,2.70
2019-05-01T23:01:05.011Z,3.30
2019-05-01T23:03:49.128Z,2.80
2019-05-01T23:06:19.472Z,2.90
2019-05-01T23:08:49.928Z,3.10
2019-05-01T23:11:21.053Z,2.63
2019-05-01T23:13:51.404Z,3.93
2019-05-01T23:16:23.436Z,2.83
2019-05-01T23:18:53.804Z,3.17
2019-05-01T23:21:24.151Z,3.23
2019-05-01T23:24:00.186Z,2.83
2019-05-01T23:26:28.007Z,3.53
2019-05-01T23:28:58.380Z,2.83
2019-05-01T23:31:28.939Z,2.57
2019-05-01T23:33:59.285Z,3.00
2019-05-01T23:36:29.597Z,2.90
2019-05-01T23:39:00.005Z,2.83
2019-05-01T23:41:45.267Z,3.00
2019-05-01T23:44:03.913Z,2.77
2019-05-01T23:46:34.463Z,3.17
2019-05-01T23:49:05.182Z,3.20
2019-05-01T23:51:35.486Z,2.90
2019-05-01T23:54:05.787Z,3.30
2019-05-01T23:56:36.380Z,3.20
2019-05-01T23:59:06.899Z,3.70
